createdAt,value
2022-08-16T00:00:20.442Z,95629.35
2022-08-16T00:03:07.780Z,95629.46
2022-08-16T00:05:48.374Z,95628.34
2022-08-16T00:08:35.789Z,95631.29
2022-08-16T00:11:08.759Z,95628.02
2022-08-16T00:13:53.645Z,95633.51
2022-08-16T00:17:05.646Z,95631.99
2022-08-16T00:19:19.995Z,95633.23
2022-08-16T00:21:55.246Z,95633.02
2022-08-16T00:24:31.392Z,95628.84
2022-08-16T00:27:03.449Z,95631.76
2022-08-16T00:29:32.785Z,95635.60
2022-08-16T00:32:06.311Z,95634.08
2022-08-16T00:34:44.402Z,95632.14
2022-08-16T00:37:58.423Z,95627.25
2022-08-16T00:43:47.706Z,95625.54
2022-08-16T00:46:33.639Z,95623.12
2022-08-16T00:49:17.512Z,95620.80
2022-08-16T00:51:55.262Z,95620.11
2022-08-16T00:54:30.069Z,95622.98
2022-08-16T00:57:03.854Z,95627.64
2022-08-16T00:59:35.942Z,95631.70
2022-08-16T01:02:31.772Z,95629.65
2022-08-16T01:05:09.414Z,95630.74
2022-08-16T01:07:52.082Z,95632.25
2022-08-16T01:10:31.452Z,95631.70
2022-08-16T01:13:07.057Z,95631.67
2022-08-16T01:15:43.057Z,95627.50
2022-08-16T01:18:39.266Z,95627.79
2022-08-16T01:21:33.583Z,95620.92
2022-08-16T01:28:19.972Z,95633.08
2022-08-16T01:30:55.563Z,95634.52
2022-08-16T01:33:44.474Z,95630.77
2022-08-16T01:36:13.266Z,95628.14
2022-08-16T01:38:51.241Z,95624.10
2022-08-16T01:41:31.266Z,95622.02
2022-08-16T01:44:03.334Z,95617.02
2022-08-16T01:46:39.142Z,95621.98
2022-08-16T01:49:22.747Z,95618.27
2022-08-16T01:51:59.830Z,95619.52
2022-08-16T01:54:53.455Z,95617.94
2022-08-16T01:57:22.933Z,95620.16
2022-08-16T01:59:54.739Z,95620.23
2022-08-16T02:02:28.653Z,95622.50
2022-08-16T02:05:00.418Z,95625.13
2022-08-16T02:07:30.628Z,95623.83
2022-08-16T02:10:02.023Z,95624.76
2022-08-16T02:12:51.860Z,95620.35
2022-08-16T02:15:27.823Z,95622.83
2022-08-16T02:18:01.380Z,95617.38
2022-08-16T02:20:35.769Z,95622.06
2022-08-16T02:23:08.711Z,95623.27
2022-08-16T02:25:52.214Z,95626.39
2022-08-16T02:28:25.233Z,95631.66
2022-08-16T02:30:55.834Z,95636.11
2022-08-16T02:33:43.967Z,95637.29
2022-08-16T02:36:47.833Z,95637.05
2022-08-16T02:39:12.569Z,95634.95
2022-08-16T02:41:46.989Z,95639.96
2022-08-16T02:44:23.605Z,95642.11
2022-08-16T02:46:55.983Z,95645.11
2022-08-16T02:49:58.091Z,95641.69
2022-08-16T02:52:24.452Z,95640.54
2022-08-16T02:54:55.923Z,95645.23
2022-08-16T02:57:26.525Z,95648.44
2022-08-16T02:59:55.545Z,95652.07
2022-08-16T03:02:31.999Z,95654.30
2022-08-16T03:05:05.062Z,95658.75
2022-08-16T03:07:37.309Z,95657.55
2022-08-16T03:10:09.775Z,95663.73
2022-08-16T03:12:56.290Z,95663.33
2022-08-16T03:15:29.249Z,95666.25
2022-08-16T03:17:58.230Z,95663.65
2022-08-16T03:20:32.096Z,95663.54
2022-08-16T03:23:04.380Z,95661.42
2022-08-16T03:25:43.274Z,95665.96
2022-08-16T03:28:16.995Z,95665.92
2022-08-16T03:30:46.057Z,95664.81
2022-08-16T03:33:16.516Z,95664.04
2022-08-16T03:35:57.228Z,95665.78
2022-08-16T03:38:47.918Z,95668.01
2022-08-16T03:41:25.351Z,95672.89
2022-08-16T03:43:57.157Z,95676.08
2022-08-16T03:46:47.861Z,95674.70
2022-08-16T03:49:36.682Z,95677.20
2022-08-16T03:52:07.910Z,95678.50
2022-08-16T03:54:36.977Z,95677.05
2022-08-16T03:57:05.975Z,95679.35
2022-08-16T03:59:40.025Z,95683.67
2022-08-16T04:02:22.579Z,95684.31
2022-08-16T04:04:59.897Z,95683.30
2022-08-16T04:07:33.289Z,95685.81
2022-08-16T04:10:36.012Z,95687.44
2022-08-16T04:13:00.594Z,95687.92
2022-08-16T04:15:33.766Z,95686.42
2022-08-16T04:18:21.034Z,95681.02
2022-08-16T04:20:51.404Z,95679.31
2022-08-16T04:23:23.691Z,95680.21
2022-08-16T04:25:54.102Z,95680.30
2022-08-16T04:28:54.562Z,95680.30
2022-08-16T04:31:14.937Z,95676.05
2022-08-16T04:33:50.581Z,95677.10
2022-08-16T04:36:22.895Z,95676.69
2022-08-16T04:38:52.578Z,95675.25
2022-08-16T04:41:32.311Z,95673.75
2022-08-16T04:44:02.021Z,95673.39
2022-08-16T04:47:02.614Z,95674.56
2022-08-16T04:49:43.730Z,95675.27
2022-08-16T04:52:33.133Z,95673.98
2022-08-16T04:55:08.145Z,95676.81
2022-08-16T04:57:38.250Z,95681.13
2022-08-16T05:00:32.289Z,95686.09
2022-08-16T05:03:01.218Z,95683.84
2022-08-16T05:05:40.228Z,95682.27
2022-08-16T05:08:28.822Z,95679.59
2022-08-16T05:11:11.594Z,95685.23
2022-08-16T05:13:43.745Z,95691.08
2022-08-16T05:16:32.282Z,95690.11
2022-08-16T05:19:11.667Z,95689.25
2022-08-16T05:21:54.186Z,95683.90
2022-08-16T05:24:24.903Z,95686.07
2022-08-16T05:27:16.154Z,95696.52
2022-08-16T05:30:00.950Z,95697.48
2022-08-16T05:32:36.535Z,95700.33
2022-08-16T05:35:16.645Z,95702.30
2022-08-16T05:38:32.407Z,95708.34
2022-08-16T05:41:04.662Z,95712.77
2022-08-16T05:43:43.246Z,95719.00
2022-08-16T05:46:30.013Z,95719.02
2022-08-16T05:49:09.578Z,95715.20
2022-08-16T05:51:46.182Z,95721.53
2022-08-16T05:54:24.975Z,95720.38
2022-08-16T05:57:00.009Z,95716.84
2022-08-16T05:59:29.181Z,95719.34
2022-08-16T06:01:58.365Z,95720.10
2022-08-16T06:04:36.458Z,95720.17
2022-08-16T06:07:25.047Z,95717.38
2022-08-16T06:10:31.986Z,95716.70
2022-08-16T06:13:01.601Z,95716.23
2022-08-16T06:15:30.720Z,95716.50
2022-08-16T06:18:03.460Z,95713.53
2022-08-16T06:20:35.561Z,95717.14
2022-08-16T06:23:18.822Z,95716.05
2022-08-16T06:25:57.682Z,95716.29
2022-08-16T06:28:36.089Z,95711.50
2022-08-16T06:31:12.254Z,95705.93
2022-08-16T06:33:44.805Z,95703.68
2022-08-16T06:36:16.797Z,95697.73
2022-08-16T06:38:56.785Z,95696.89
2022-08-16T06:42:00.974Z,95694.74
2022-08-16T06:44:58.477Z,95698.54
2022-08-16T06:47:52.814Z,95699.72
2022-08-16T06:50:28.621Z,95698.22
2022-08-16T06:53:08.522Z,95693.36
2022-08-16T06:55:43.441Z,95698.66
2022-08-16T06:58:22.442Z,95700.18
2022-08-16T07:00:59.559Z,95699.90
2022-08-16T07:03:32.254Z,95699.29
2022-08-16T07:06:02.306Z,95696.94
2022-08-16T07:08:39.132Z,95697.39
2022-08-16T07:11:09.465Z,95702.23
2022-08-16T07:14:22.996Z,95704.78
2022-08-16T07:16:28.084Z,95709.96
2022-08-16T07:19:02.009Z,95708.17
2022-08-16T07:21:45.826Z,95700.80
2022-08-16T07:24:30.593Z,95699.83
2022-08-16T07:27:08.537Z,95700.95
2022-08-16T07:29:42.570Z,95710.41
2022-08-16T07:32:12.273Z,95710.27
2022-08-16T07:34:48.219Z,95708.66
2022-08-16T07:37:19.129Z,95710.58
2022-08-16T07:40:12.897Z,95710.45
2022-08-16T07:42:44.655Z,95709.37
2022-08-16T07:45:16.991Z,95705.40
2022-08-16T07:48:24.187Z,95713.79
2022-08-16T07:51:00.325Z,95722.23
2022-08-16T07:53:34.760Z,95727.66
2022-08-16T07:56:12.844Z,95732.29
2022-08-16T07:58:43.297Z,95737.94
2022-08-16T08:01:15.234Z,95732.15
2022-08-16T08:04:13.449Z,95743.59
2022-08-16T08:06:45.384Z,95744.09
2022-08-16T08:09:19.669Z,95750.92
2022-08-16T08:11:59.508Z,95749.83
2022-08-16T08:14:29.853Z,95745.84
2022-08-16T08:17:01.965Z,95750.52
2022-08-16T08:19:35.568Z,95750.98
2022-08-16T08:22:05.969Z,95749.55
2022-08-16T08:24:47.062Z,95749.91
2022-08-16T08:31:17.351Z,95760.08
2022-08-16T08:33:51.398Z,95772.69
2022-08-16T08:36:32.914Z,95774.15
2022-08-16T08:39:12.926Z,95781.11
2022-08-16T08:41:44.155Z,95784.00
2022-08-16T08:44:28.788Z,95790.69
2022-08-16T08:47:12.101Z,95795.30
2022-08-16T08:49:50.542Z,95798.63
2022-08-16T08:52:34.721Z,95799.80
2022-08-16T08:55:13.227Z,95799.61
2022-08-16T08:57:46.775Z,95802.33
2022-08-16T09:00:30.202Z,95806.04
2022-08-16T09:03:04.624Z,95808.39
2022-08-16T09:05:39.649Z,95804.86
2022-08-16T09:08:12.832Z,95808.34
2022-08-16T09:10:59.229Z,95809.65
2022-08-16T09:13:33.438Z,95809.54
2022-08-16T09:16:02.650Z,95810.33
2022-08-16T09:18:35.925Z,95810.39
2022-08-16T09:21:09.599Z,95813.05
2022-08-16T09:23:39.053Z,95807.70
2022-08-16T09:26:43.947Z,95810.56
2022-08-16T09:29:16.838Z,95804.78
2022-08-16T09:31:53.638Z,95811.26
2022-08-16T09:34:23.418Z,95813.72
2022-08-16T09:36:53.910Z,95813.35
2022-08-16T09:39:23.229Z,95811.94
2022-08-16T09:41:56.342Z,95815.23
2022-08-16T09:45:11.323Z,95814.73
2022-08-16T09:47:14.917Z,95810.65
2022-08-16T09:49:43.299Z,95810.09
2022-08-16T09:52:22.315Z,95811.35
2022-08-16T09:54:50.845Z,95810.78
2022-08-16T09:57:19.218Z,95809.58
2022-08-16T09:59:56.372Z,95817.60
2022-08-16T10:02:26.853Z,95817.08
2022-08-16T10:04:57.932Z,95816.05
2022-08-16T10:07:38.255Z,95811.83
2022-08-16T10:10:19.035Z,95805.70
2022-08-16T10:13:12.114Z,95802.02
2022-08-16T10:15:48.038Z,95800.60
2022-08-16T10:19:02.011Z,95800.64
2022-08-16T10:21:14.110Z,95798.05
2022-08-16T10:23:43.992Z,95797.11
2022-08-16T10:27:18.203Z,95792.60
2022-08-16T10:29:04.884Z,95793.42
2022-08-16T10:31:43.620Z,95789.06
2022-08-16T10:34:30.918Z,95791.96
2022-08-16T10:37:02.402Z,95796.42
2022-08-16T10:39:40.391Z,95794.02
2022-08-16T10:42:13.620Z,95794.96
2022-08-16T10:44:42.759Z,95790.08
2022-08-16T10:47:22.557Z,95786.79
2022-08-16T10:49:51.004Z,95783.55
2022-08-16T10:52:20.056Z,95777.63
2022-08-16T10:57:37.819Z,95767.20
2022-08-16T11:00:21.487Z,95770.88
2022-08-16T11:03:37.680Z,95764.08
2022-08-16T11:05:59.421Z,95768.55
2022-08-16T11:08:35.404Z,95765.10
2022-08-16T11:11:11.781Z,95757.35
2022-08-16T11:14:10.729Z,95750.30
2022-08-16T11:19:26.539Z,95729.49
2022-08-16T11:22:38.407Z,95734.79
2022-08-16T11:25:11.443Z,95730.71
2022-08-16T11:27:36.252Z,95727.77
2022-08-16T11:30:09.094Z,95719.64
2022-08-16T11:32:47.768Z,95719.25
2022-08-16T11:35:43.418Z,95716.20
2022-08-16T11:38:47.266Z,95712.30
2022-08-16T11:41:03.735Z,95713.91
2022-08-16T11:43:38.279Z,95713.83
2022-08-16T11:46:45.344Z,95710.84
2022-08-16T11:48:59.249Z,95712.42
2022-08-16T11:51:27.656Z,95719.14
2022-08-16T11:53:56.320Z,95713.73
2022-08-16T11:56:29.920Z,95709.73
2022-08-16T11:59:13.886Z,95710.48
2022-08-16T12:01:59.500Z,95712.58
2022-08-16T12:04:28.675Z,95715.48
2022-08-16T12:06:59.012Z,95718.30
2022-08-16T12:09:29.563Z,95722.67
2022-08-16T12:12:03.037Z,95716.16
2022-08-16T12:14:35.246Z,95723.46
2022-08-16T12:17:10.425Z,95723.28
2022-08-16T12:19:38.860Z,95721.69
2022-08-16T12:22:18.626Z,95721.23
2022-08-16T12:24:52.657Z,95718.77
2022-08-16T12:27:24.349Z,95720.89
2022-08-16T12:29:54.180Z,95712.83
2022-08-16T12:32:35.837Z,95717.87
2022-08-16T12:35:10.475Z,95710.79
2022-08-16T12:37:39.730Z,95708.10
2022-08-16T12:40:24.074Z,95703.66
2022-08-16T12:42:59.135Z,95705.60
2022-08-16T12:45:31.063Z,95703.17
2022-08-16T12:48:35.239Z,95699.38
2022-08-16T12:51:13.469Z,95695.70
2022-08-16T12:53:52.043Z,95695.15
2022-08-16T12:56:26.640Z,95690.60
2022-08-16T12:58:57.045Z,95684.95
2022-08-16T13:01:31.771Z,95679.20
2022-08-16T13:04:12.125Z,95674.42
2022-08-16T13:06:52.508Z,95672.27
2022-08-16T13:09:28.884Z,95671.63
2022-08-16T13:12:04.389Z,95670.60
2022-08-16T13:14:44.928Z,95671.71
2022-08-16T13:21:23.859Z,95668.57
2022-08-16T13:23:55.454Z,95663.23
2022-08-16T13:26:26.457Z,95662.61
2022-08-16T13:28:58.515Z,95664.92
2022-08-16T13:31:29.812Z,95665.08
2022-08-16T13:33:58.612Z,95663.30
2022-08-16T13:39:17.957Z,95657.44
2022-08-16T13:41:53.537Z,95653.01
2022-08-16T13:44:48.550Z,95656.45
2022-08-16T13:47:11.115Z,95657.52
2022-08-16T13:49:41.733Z,95654.91
2022-08-16T13:52:17.199Z,95656.20
2022-08-16T13:54:46.146Z,95657.48
2022-08-16T13:57:14.487Z,95652.52
2022-08-16T13:59:44.043Z,95649.51
2022-08-16T14:02:14.067Z,95651.74
2022-08-16T14:04:43.671Z,95645.13
2022-08-16T14:07:19.862Z,95640.89
2022-08-16T14:09:55.216Z,95638.85
2022-08-16T14:12:27.592Z,95638.23
2022-08-16T14:14:57.661Z,95639.13
2022-08-16T14:17:27.879Z,95644.23
2022-08-16T14:19:59.944Z,95646.46
2022-08-16T14:22:39.853Z,95643.02
2022-08-16T14:25:12.948Z,95643.00
2022-08-16T14:27:46.118Z,95640.02
2022-08-16T14:30:19.942Z,95637.92
2022-08-16T14:32:51.189Z,95636.91
2022-08-16T14:39:29.940Z,95645.04
2022-08-16T14:42:20.710Z,95638.94
2022-08-16T14:44:52.102Z,95642.33
2022-08-16T14:47:23.429Z,95643.55
2022-08-16T14:49:53.364Z,95639.61
2022-08-16T14:52:51.980Z,95638.30
2022-08-16T14:55:14.942Z,95636.63
2022-08-16T14:57:46.988Z,95637.86
2022-08-16T15:00:18.253Z,95641.19
2022-08-16T15:02:54.894Z,95639.83
2022-08-16T15:05:25.413Z,95641.58
2022-08-16T15:07:57.671Z,95645.02
2022-08-16T15:10:29.173Z,95640.73
2022-08-16T15:12:58.721Z,95641.48
2022-08-16T15:15:28.775Z,95640.52
2022-08-16T15:17:58.743Z,95639.11
2022-08-16T15:20:34.057Z,95633.70
2022-08-16T15:23:07.535Z,95634.40
2022-08-16T15:25:41.088Z,95636.77
2022-08-16T15:28:31.317Z,95637.89
2022-08-16T15:31:06.023Z,95636.04
2022-08-16T15:33:42.703Z,95629.33
2022-08-16T15:36:21.149Z,95624.55
2022-08-16T15:39:02.068Z,95625.10
2022-08-16T15:41:38.508Z,95622.27
2022-08-16T15:44:10.870Z,95623.55
2022-08-16T15:46:54.742Z,95629.60
2022-08-16T15:49:37.434Z,95623.70
2022-08-16T15:52:12.179Z,95620.13
2022-08-16T15:54:52.183Z,95623.44
2022-08-16T15:57:24.563Z,95624.76
2022-08-16T16:00:14.302Z,95622.04
2022-08-16T16:02:49.647Z,95621.88
2022-08-16T16:05:19.531Z,95625.13
2022-08-16T16:07:56.107Z,95625.89
2022-08-16T16:10:30.242Z,95631.52
2022-08-16T16:13:01.926Z,95628.96
2022-08-16T16:15:59.545Z,95632.20
2022-08-16T16:18:30.233Z,95631.84
2022-08-16T16:21:03.853Z,95632.66
2022-08-16T16:23:41.094Z,95631.80
2022-08-16T16:26:15.951Z,95632.98
2022-08-16T16:29:07.633Z,95639.43
2022-08-16T16:31:36.329Z,95645.69
2022-08-16T16:34:05.665Z,95651.39
2022-08-16T16:36:35.349Z,95653.92
2022-08-16T16:39:07.644Z,95655.35
2022-08-16T16:41:39.842Z,95653.54
2022-08-16T16:44:10.815Z,95656.45
2022-08-16T16:46:56.882Z,95653.41
2022-08-16T16:49:26.570Z,95657.20
2022-08-16T16:52:06.715Z,95659.08
2022-08-16T16:54:35.791Z,95658.33
2022-08-16T16:57:04.284Z,95659.77
2022-08-16T16:59:32.594Z,95658.79
2022-08-16T17:02:41.571Z,95667.30
2022-08-16T17:04:49.554Z,95664.96
2022-08-16T17:07:23.903Z,95665.17
2022-08-16T17:09:54.057Z,95668.13
2022-08-16T17:12:25.388Z,95674.19
2022-08-16T17:15:12.219Z,95677.88
2022-08-16T17:19:17.426Z,95693.38
2022-08-16T17:20:32.219Z,95697.64
2022-08-16T17:23:01.081Z,95695.05
2022-08-16T17:25:36.518Z,95700.70
2022-08-16T17:28:58.256Z,95695.10
2022-08-16T17:30:56.578Z,95697.54
2022-08-16T17:33:25.584Z,95707.15
2022-08-16T17:35:55.754Z,95710.73
2022-08-16T17:38:38.591Z,95714.39
2022-08-16T17:41:12.345Z,95715.07
2022-08-16T17:43:44.476Z,95716.77
2022-08-16T17:46:41.511Z,95718.92
2022-08-16T17:49:04.688Z,95719.48
2022-08-16T17:51:34.449Z,95721.36
2022-08-16T17:54:03.764Z,95718.92
2022-08-16T17:56:32.525Z,95727.45
2022-08-16T17:59:02.087Z,95731.55
2022-08-16T18:01:31.150Z,95730.64
2022-08-16T18:04:08.263Z,95734.41
2022-08-16T18:06:39.994Z,95733.71
2022-08-16T18:09:09.224Z,95731.48
2022-08-16T18:11:43.191Z,95730.68
2022-08-16T18:14:18.251Z,95736.05
2022-08-16T18:16:48.255Z,95736.85
2022-08-16T18:19:19.951Z,95742.52
2022-08-16T18:22:06.913Z,95741.66
2022-08-16T18:24:35.389Z,95747.17
2022-08-16T18:27:26.413Z,95753.71
2022-08-16T18:29:52.595Z,95756.06
2022-08-16T18:32:21.953Z,95757.67
2022-08-16T18:34:54.985Z,95761.67
2022-08-16T18:37:24.863Z,95764.56
2022-08-16T18:39:56.687Z,95767.16
2022-08-16T18:42:26.595Z,95775.23
2022-08-16T18:44:55.116Z,95811.11
2022-08-16T18:47:26.549Z,95830.84
2022-08-16T18:49:54.900Z,95844.58
2022-08-16T18:52:25.603Z,95859.39
2022-08-16T18:55:01.685Z,95863.27
2022-08-16T18:57:31.642Z,95866.35
2022-08-16T19:00:00.030Z,95871.25
2022-08-16T19:02:42.934Z,95868.80
2022-08-16T19:05:24.230Z,95876.16
2022-08-16T19:07:52.613Z,95877.46
2022-08-16T19:10:21.315Z,95882.20
2022-08-16T19:12:50.041Z,95883.15
2022-08-16T19:15:28.268Z,95882.01
2022-08-16T19:17:57.234Z,95887.50
2022-08-16T19:20:28.022Z,95886.80
2022-08-16T19:23:10.407Z,95889.52
2022-08-16T19:25:52.890Z,95901.84
2022-08-16T19:28:52.087Z,95906.48
2022-08-16T19:31:24.805Z,95915.48
2022-08-16T19:33:57.018Z,95919.88
2022-08-16T19:36:35.010Z,95916.31
2022-08-16T19:39:11.271Z,95922.02
2022-08-16T19:41:43.834Z,95924.40
2022-08-16T19:44:13.429Z,95922.48
2022-08-16T19:46:45.079Z,95938.55
2022-08-16T19:49:15.912Z,95971.87
2022-08-16T19:51:46.967Z,95984.13
2022-08-16T19:54:18.308Z,95991.48
2022-08-16T19:56:46.991Z,95983.62
2022-08-16T19:59:19.186Z,95987.84
2022-08-16T20:01:52.574Z,95980.91
2022-08-16T20:04:26.068Z,95971.75
2022-08-16T20:06:54.963Z,95951.66
2022-08-16T20:09:24.120Z,95938.58
2022-08-16T20:11:54.569Z,95912.89
2022-08-16T20:14:25.484Z,95895.76
2022-08-16T20:16:56.946Z,95890.41
2022-08-16T20:19:27.731Z,95890.66
2022-08-16T20:22:01.038Z,95887.65
2022-08-16T20:24:35.981Z,95880.42
2022-08-16T20:27:09.840Z,95875.89
2022-08-16T20:29:41.215Z,95868.56
2022-08-16T20:32:14.278Z,95871.34
2022-08-16T20:34:45.409Z,95868.31
2022-08-16T20:37:16.859Z,95873.09
2022-08-16T20:40:34.300Z,95874.70
2022-08-16T20:43:14.284Z,95862.88
2022-08-16T20:45:45.768Z,95856.73
2022-08-16T20:48:14.845Z,95847.41
2022-08-16T20:50:44.091Z,95843.66
2022-08-16T20:53:12.481Z,95836.30
2022-08-16T20:55:41.976Z,95837.60
2022-08-16T20:58:11.018Z,95837.11
2022-08-16T21:00:40.032Z,95833.32
2022-08-16T21:03:09.764Z,95827.02
2022-08-16T21:05:38.894Z,95818.73
2022-08-16T21:08:10.383Z,95807.30
2022-08-16T21:10:57.146Z,95800.76
2022-08-16T21:13:25.911Z,95797.48
2022-08-16T21:15:54.236Z,95789.55
2022-08-16T21:18:22.555Z,95792.08
2022-08-16T21:20:51.370Z,95792.88
2022-08-16T21:23:20.317Z,95796.30
2022-08-16T21:25:58.703Z,95797.67
2022-08-16T21:28:40.921Z,95797.96
2022-08-16T21:31:15.911Z,95793.16
2022-08-16T21:33:47.499Z,95793.35
2022-08-16T21:36:35.544Z,95794.48
2022-08-16T21:39:06.439Z,95800.63
2022-08-16T21:42:36.619Z,95801.72
2022-08-16T21:45:06.468Z,95797.65
2022-08-16T21:47:34.802Z,95800.07
2022-08-16T21:50:03.131Z,95800.44
2022-08-16T21:52:31.433Z,95801.27
2022-08-16T21:54:59.818Z,95803.23
2022-08-16T21:57:35.601Z,95805.86
2022-08-16T22:00:16.152Z,95802.62
2022-08-16T22:02:49.133Z,95797.89
2022-08-16T22:05:19.443Z,95801.25
2022-08-16T22:07:47.761Z,95811.10
2022-08-16T22:11:05.055Z,95813.67
2022-08-16T22:13:07.051Z,95819.15
2022-08-16T22:15:35.456Z,95817.20
2022-08-16T22:18:03.925Z,95818.56
2022-08-16T22:20:32.825Z,95823.95
2022-08-16T22:23:13.406Z,95821.54
2022-08-16T22:25:43.311Z,95815.52
2022-08-16T22:28:12.636Z,95817.14
2022-08-16T22:30:42.021Z,95819.74
2022-08-16T22:33:18.879Z,95819.87
2022-08-16T22:35:57.134Z,95824.23
2022-08-16T22:38:53.701Z,95824.41
2022-08-16T22:41:15.210Z,95823.36
2022-08-16T22:47:35.829Z,95830.44
2022-08-16T22:50:04.557Z,95833.46
2022-08-16T22:52:55.674Z,95833.00
2022-08-16T22:55:21.690Z,95829.73
2022-08-16T22:57:51.059Z,95831.36
2022-08-16T23:00:22.891Z,95832.61
2022-08-16T23:02:59.002Z,95828.90
2022-08-16T23:05:36.831Z,95825.84
2022-08-16T23:08:08.449Z,95825.38
2022-08-16T23:10:36.884Z,95823.71
2022-08-16T23:13:06.887Z,95825.33
2022-08-16T23:15:51.782Z,95825.91
2022-08-16T23:18:23.678Z,95826.88
2022-08-16T23:20:58.912Z,95820.48
2022-08-16T23:23:29.420Z,95822.17
2022-08-16T23:25:59.210Z,95818.05
2022-08-16T23:28:31.545Z,95818.98
2022-08-16T23:31:00.164Z,95827.98
2022-08-16T23:33:29.225Z,95828.58
2022-08-16T23:36:00.465Z,95826.83
2022-08-16T23:38:37.457Z,95824.92
2022-08-16T23:41:11.959Z,95823.80
2022-08-16T23:43:44.015Z,95821.86
2022-08-16T23:46:16.377Z,95818.84
2022-08-16T23:49:56.077Z,95820.77
2022-08-16T23:51:34.443Z,95824.30
2022-08-16T23:54:02.811Z,95823.48
2022-08-16T23:56:38.980Z,95821.08
2022-08-16T23:59:09.454Z,95822.07
